createdAt,value
2023-03-26T00:00:48.444Z,8.18
2023-03-26T00:01:48.392Z,8.18
2023-03-26T00:02:48.770Z,8.19
2023-03-26T00:03:48.344Z,8.18
2023-03-26T00:04:48.400Z,8.18
2023-03-26T00:05:50.745Z,8.2
2023-03-26T00:06:48.362Z,8.2
2023-03-26T00:07:48.773Z,8.21
2023-03-26T00:08:48.369Z,8.19
2023-03-26T00:09:48.461Z,8.18
2023-03-26T00:10:48.379Z,8.22
2023-03-26T00:11:48.498Z,8.24
2023-03-26T00:12:48.784Z,8.27
2023-03-26T00:13:48.344Z,8.31
2023-03-26T00:14:48.386Z,8.35
2023-03-26T00:15:48.381Z,8.4
2023-03-26T00:16:50.727Z,8.45
2023-03-26T00:17:48.819Z,8.48
2023-03-26T00:18:48.376Z,8.5
2023-03-26T00:19:48.354Z,8.52
2023-03-26T00:20:48.468Z,8.53
2023-03-26T00:21:48.524Z,8.56
2023-03-26T00:22:48.408Z,8.58
2023-03-26T00:23:48.483Z,8.59
2023-03-26T00:24:48.751Z,8.63
2023-03-26T00:25:49.546Z,8.63
2023-03-26T00:26:48.386Z,8.66
2023-03-26T00:27:53.197Z,8.69
2023-03-26T00:28:48.473Z,8.71
2023-03-26T00:29:48.532Z,8.73
2023-03-26T00:30:48.425Z,8.75
2023-03-26T00:31:48.368Z,8.75
2023-03-26T00:32:53.517Z,8.76
2023-03-26T00:33:48.386Z,8.76
2023-03-26T00:34:48.468Z,8.75
2023-03-26T00:35:48.425Z,8.75
2023-03-26T00:36:48.393Z,8.74
2023-03-26T00:37:48.519Z,8.74
2023-03-26T00:38:50.786Z,8.74
2023-03-26T00:39:48.780Z,8.75
2023-03-26T00:40:48.361Z,8.74
2023-03-26T00:41:48.499Z,8.75
2023-03-26T00:42:48.773Z,8.76
2023-03-26T00:43:48.406Z,8.75
2023-03-26T00:44:48.475Z,8.75
2023-03-26T00:45:48.437Z,8.74
2023-03-26T00:46:48.372Z,8.74
2023-03-26T00:47:48.803Z,8.71
2023-03-26T00:48:48.358Z,8.73
2023-03-26T00:49:50.833Z,8.71
2023-03-26T00:50:48.346Z,8.7
2023-03-26T00:51:48.357Z,8.7
2023-03-26T00:52:48.735Z,8.69
2023-03-26T00:53:48.364Z,8.68
2023-03-26T00:54:48.831Z,8.66
2023-03-26T00:55:48.356Z,8.65
2023-03-26T00:56:48.399Z,8.63
2023-03-26T00:57:48.798Z,8.64
2023-03-26T00:58:48.494Z,8.64
2023-03-26T00:59:48.380Z,8.65
2023-03-26T01:00:50.762Z,8.65
2023-03-26T01:01:48.380Z,8.64
2023-03-26T01:02:48.911Z,8.64
2023-03-26T01:04:01.232Z,8.62
2023-03-26T01:04:48.458Z,8.6
2023-03-26T01:05:48.372Z,8.58
2023-03-26T01:06:48.390Z,8.55
2023-03-26T01:07:48.802Z,8.53
2023-03-26T01:08:48.489Z,8.48
2023-03-26T01:09:48.759Z,8.45
2023-03-26T01:10:48.454Z,8.42
2023-03-26T01:11:50.703Z,8.39
2023-03-26T01:12:48.786Z,8.36
2023-03-26T01:13:48.500Z,8.32
2023-03-26T01:14:49.306Z,8.28
2023-03-26T01:15:48.512Z,8.26
2023-03-26T01:16:48.373Z,8.23
2023-03-26T01:17:48.829Z,8.21
2023-03-26T01:18:48.342Z,8.18
2023-03-26T01:19:48.420Z,8.16
2023-03-26T01:20:48.510Z,8.14
2023-03-26T01:21:48.473Z,8.1
2023-03-26T01:22:53.154Z,8.1
2023-03-26T01:23:48.532Z,8.06
2023-03-26T01:24:48.761Z,8.05
2023-03-26T01:25:48.478Z,8.04
2023-03-26T01:26:48.350Z,8.05
2023-03-26T01:27:48.757Z,8.04
2023-03-26T01:28:48.510Z,8.04
2023-03-26T01:29:48.370Z,8.04
2023-03-26T01:30:48.370Z,8.08
2023-03-26T01:31:48.482Z,8.08
2023-03-26T01:32:48.895Z,8.04
2023-03-26T01:33:50.752Z,8
2023-03-26T01:34:48.361Z,8.05
2023-03-26T01:35:48.538Z,8.02
2023-03-26T01:36:48.351Z,8.06
2023-03-26T01:37:48.791Z,8.05
2023-03-26T01:38:48.363Z,8.03
2023-03-26T01:39:48.763Z,8.04
2023-03-26T01:40:48.524Z,8
2023-03-26T01:41:48.367Z,8.01
2023-03-26T01:42:48.787Z,8.02
2023-03-26T01:43:48.348Z,8.01
2023-03-26T01:44:50.851Z,8.01
2023-03-26T01:45:48.364Z,8.02
2023-03-26T01:46:48.380Z,8.03
2023-03-26T01:47:48.800Z,8.05
2023-03-26T01:48:48.490Z,8.1
2023-03-26T01:49:48.390Z,8.14
2023-03-26T01:50:48.512Z,8.2
2023-03-26T01:51:48.765Z,8.23
2023-03-26T01:52:48.775Z,8.28
2023-03-26T01:53:48.365Z,8.35
2023-03-26T01:54:48.776Z,8.38
2023-03-26T01:55:50.705Z,8.41
2023-03-26T01:56:48.570Z,8.38
2023-03-26T01:57:48.772Z,8.41
2023-03-26T01:58:48.468Z,8.46
2023-03-26T01:59:48.365Z,8.46
2023-03-26T02:00:48.402Z,8.47
2023-03-26T02:01:48.511Z,8.5
2023-03-26T02:02:48.945Z,8.5
2023-03-26T02:03:48.410Z,8.5
2023-03-26T02:04:48.361Z,8.52
2023-03-26T02:05:48.359Z,8.52
2023-03-26T02:06:50.818Z,8.54
2023-03-26T02:07:48.877Z,8.54
2023-03-26T02:08:48.419Z,8.54
2023-03-26T02:09:48.987Z,8.55
2023-03-26T02:10:48.548Z,8.56
2023-03-26T02:11:48.363Z,8.54
2023-03-26T02:12:48.778Z,8.49
2023-03-26T02:13:48.374Z,8.47
2023-03-26T02:14:48.358Z,8.45
2023-03-26T02:15:48.399Z,8.41
2023-03-26T02:16:48.364Z,8.37
2023-03-26T02:17:53.305Z,8.37
2023-03-26T02:18:48.350Z,8.37
2023-03-26T02:19:48.438Z,8.37
2023-03-26T02:20:48.443Z,8.37
2023-03-26T02:21:48.362Z,8.35
2023-03-26T02:22:48.755Z,8.32
2023-03-26T02:23:48.370Z,8.27
2023-03-26T02:24:48.764Z,8.25
2023-03-26T02:25:48.358Z,8.23
2023-03-26T02:26:48.501Z,8.2
2023-03-26T02:27:48.456Z,8.19
2023-03-26T02:28:50.727Z,8.21
2023-03-26T02:29:48.374Z,8.28
2023-03-26T02:30:48.354Z,8.31
2023-03-26T02:31:48.482Z,8.34
2023-03-26T02:32:48.816Z,8.35
2023-03-26T02:33:48.494Z,8.34
2023-03-26T02:34:48.371Z,8.36
2023-03-26T02:35:48.562Z,8.39
2023-03-26T02:36:48.393Z,8.38
2023-03-26T02:37:48.745Z,8.42
2023-03-26T02:38:48.363Z,8.41
2023-03-26T02:39:53.216Z,8.38
2023-03-26T02:40:48.390Z,8.35
2023-03-26T02:41:48.361Z,8.33
2023-03-26T02:42:48.750Z,8.31
2023-03-26T02:43:48.382Z,8.28
2023-03-26T02:44:48.474Z,8.28
2023-03-26T02:45:48.386Z,8.27
2023-03-26T02:46:48.353Z,8.27
2023-03-26T02:47:48.798Z,8.27
2023-03-26T02:48:48.339Z,8.29
2023-03-26T02:49:48.486Z,8.3
2023-03-26T02:50:50.670Z,8.36
2023-03-26T02:51:48.803Z,8.39
2023-03-26T02:52:48.814Z,8.4
2023-03-26T02:53:48.355Z,8.44
2023-03-26T02:54:48.770Z,8.44
2023-03-26T02:55:48.364Z,8.45
2023-03-26T02:56:48.368Z,8.45
2023-03-26T02:57:48.752Z,8.45
2023-03-26T02:58:48.396Z,8.44
2023-03-26T02:59:48.365Z,8.44
2023-03-26T03:00:48.524Z,8.45
2023-03-26T03:01:50.733Z,8.46
2023-03-26T03:02:48.914Z,8.47
2023-03-26T03:03:48.551Z,8.47
2023-03-26T03:04:48.342Z,8.48
2023-03-26T03:05:48.372Z,8.49
2023-03-26T03:06:48.377Z,8.48
2023-03-26T03:07:48.814Z,8.47
2023-03-26T03:08:48.462Z,8.49
2023-03-26T03:09:48.747Z,8.47
2023-03-26T03:10:48.361Z,8.47
2023-03-26T03:11:48.488Z,8.45
2023-03-26T03:12:53.186Z,8.47
2023-03-26T03:13:48.361Z,8.47
2023-03-26T03:14:48.479Z,8.49
2023-03-26T03:15:48.470Z,8.5
2023-03-26T03:16:48.353Z,8.51
2023-03-26T03:17:48.787Z,8.53
2023-03-26T03:18:48.359Z,8.55
2023-03-26T03:19:48.489Z,8.56
2023-03-26T03:20:48.346Z,8.59
2023-03-26T03:21:48.357Z,8.62
2023-03-26T03:22:48.756Z,8.64
2023-03-26T03:23:50.745Z,8.64
2023-03-26T03:24:48.787Z,8.64
2023-03-26T03:25:48.369Z,8.67
2023-03-26T03:26:48.510Z,8.68
2023-03-26T03:27:48.772Z,8.69
2023-03-26T03:28:48.364Z,8.7
2023-03-26T03:29:48.509Z,8.69
2023-03-26T03:30:48.395Z,8.67
2023-03-26T03:31:48.371Z,8.67
2023-03-26T03:32:48.812Z,8.66
2023-03-26T03:33:48.470Z,8.64
2023-03-26T03:34:50.744Z,8.58
2023-03-26T03:35:48.442Z,8.54
2023-03-26T03:36:48.378Z,8.49
2023-03-26T03:37:48.761Z,8.47
2023-03-26T03:38:48.496Z,8.45
2023-03-26T03:39:48.788Z,8.44
2023-03-26T03:40:48.413Z,8.44
2023-03-26T03:41:48.363Z,8.46
2023-03-26T03:42:48.779Z,8.46
2023-03-26T03:43:48.362Z,8.47
2023-03-26T03:44:48.458Z,8.49
2023-03-26T03:45:50.741Z,8.49
2023-03-26T03:46:48.513Z,8.49
2023-03-26T03:47:48.747Z,8.5
2023-03-26T03:48:48.373Z,8.51
2023-03-26T03:49:48.383Z,8.55
2023-03-26T03:50:48.498Z,8.58
2023-03-26T03:51:48.776Z,8.58
2023-03-26T03:52:48.749Z,8.59
2023-03-26T03:53:48.459Z,8.6
2023-03-26T03:54:48.807Z,8.64
2023-03-26T03:55:48.359Z,8.64
2023-03-26T03:56:50.827Z,8.62
2023-03-26T03:57:48.810Z,8.65
2023-03-26T03:58:48.514Z,8.67
2023-03-26T03:59:48.388Z,8.68
2023-03-26T04:00:48.368Z,8.69
2023-03-26T04:01:48.537Z,8.65
2023-03-26T04:02:48.505Z,8.61
2023-03-26T04:03:48.596Z,8.6
2023-03-26T04:04:48.395Z,8.6
2023-03-26T04:05:48.492Z,8.57
2023-03-26T04:06:48.364Z,8.56
2023-03-26T04:07:53.272Z,8.56
2023-03-26T04:08:48.531Z,8.54
2023-03-26T04:09:48.785Z,8.53
2023-03-26T04:10:48.401Z,8.53
2023-03-26T04:11:48.465Z,8.52
2023-03-26T04:12:48.764Z,8.52
2023-03-26T04:13:48.505Z,8.53
2023-03-26T04:14:48.441Z,8.52
2023-03-26T04:15:48.427Z,8.54
2023-03-26T04:16:48.934Z,8.56
2023-03-26T04:17:48.831Z,8.61
2023-03-26T04:18:50.826Z,8.61
2023-03-26T04:19:48.400Z,8.59
2023-03-26T04:20:48.366Z,8.58
2023-03-26T04:21:48.444Z,8.59
2023-03-26T04:22:48.789Z,8.61
2023-03-26T04:23:48.364Z,8.6
2023-03-26T04:24:48.832Z,8.56
2023-03-26T04:25:48.632Z,8.55
2023-03-26T04:26:48.380Z,8.56
2023-03-26T04:27:48.776Z,8.59
2023-03-26T04:28:48.488Z,8.6
2023-03-26T04:29:50.710Z,8.59
2023-03-26T04:30:48.335Z,8.54
2023-03-26T04:31:48.381Z,8.52
2023-03-26T04:32:48.860Z,8.51
2023-03-26T04:33:48.436Z,8.52
2023-03-26T04:34:48.499Z,8.51
2023-03-26T04:35:48.485Z,8.49
2023-03-26T04:36:48.410Z,8.46
2023-03-26T04:37:48.985Z,8.42
2023-03-26T04:38:48.359Z,8.43
2023-03-26T04:39:49.126Z,8.41
2023-03-26T04:40:51.119Z,8.39
2023-03-26T04:41:48.362Z,8.37
2023-03-26T04:42:48.836Z,8.35
2023-03-26T04:43:48.355Z,8.35
2023-03-26T04:44:48.492Z,8.33
2023-03-26T04:45:48.401Z,8.3
2023-03-26T04:46:48.484Z,8.31
2023-03-26T04:47:48.817Z,8.3
2023-03-26T04:48:48.462Z,8.28
2023-03-26T04:49:48.495Z,8.27
2023-03-26T04:50:48.381Z,8.25
2023-03-26T04:51:51.155Z,8.24
2023-03-26T04:52:48.757Z,8.26
2023-03-26T04:53:48.352Z,8.27
2023-03-26T04:54:48.779Z,8.25
2023-03-26T04:55:48.736Z,8.26
2023-03-26T04:56:48.377Z,8.25
2023-03-26T04:57:48.755Z,8.24
2023-03-26T04:58:48.391Z,8.22
2023-03-26T04:59:48.369Z,8.28
2023-03-26T05:00:48.550Z,8.31
2023-03-26T05:01:48.471Z,8.3
2023-03-26T05:02:53.265Z,8.33
2023-03-26T05:03:48.383Z,8.32
2023-03-26T05:04:48.385Z,8.32
2023-03-26T05:05:48.358Z,8.35
2023-03-26T05:06:48.467Z,8.37
2023-03-26T05:07:48.386Z,8.38
2023-03-26T05:08:48.357Z,8.4
2023-03-26T05:09:48.363Z,8.38
2023-03-26T05:10:48.769Z,8.36
2023-03-26T05:11:48.432Z,8.37
2023-03-26T05:12:48.752Z,8.4
2023-03-26T05:13:50.747Z,8.4
2023-03-26T05:14:48.358Z,8.41
2023-03-26T05:15:48.404Z,8.43
2023-03-26T05:16:48.526Z,8.44
2023-03-26T05:17:48.777Z,8.47
2023-03-26T05:18:48.446Z,8.51
2023-03-26T05:19:48.376Z,8.55
2023-03-26T05:20:48.488Z,8.6
2023-03-26T05:21:48.362Z,8.65
2023-03-26T05:22:48.790Z,8.66
2023-03-26T05:23:48.447Z,8.64
2023-03-26T05:24:50.730Z,8.62
2023-03-26T05:25:48.788Z,8.61
2023-03-26T05:26:48.384Z,8.58
2023-03-26T05:27:48.788Z,8.54
2023-03-26T05:28:48.478Z,8.51
2023-03-26T05:29:48.347Z,8.5
2023-03-26T05:30:48.363Z,8.53
2023-03-26T05:31:48.506Z,8.56
2023-03-26T05:32:49.172Z,8.6
2023-03-26T05:33:48.438Z,8.61
2023-03-26T05:34:48.339Z,8.6
2023-03-26T05:35:50.853Z,8.58
2023-03-26T05:36:48.311Z,8.6
2023-03-26T05:37:48.762Z,8.6
2023-03-26T05:38:48.470Z,8.6
2023-03-26T05:39:48.368Z,8.66
2023-03-26T05:40:48.795Z,8.66
2023-03-26T05:41:48.497Z,8.69
2023-03-26T05:42:48.858Z,8.73
2023-03-26T05:43:48.514Z,8.71
2023-03-26T05:44:48.371Z,8.66
2023-03-26T05:45:48.421Z,8.65
2023-03-26T05:46:50.750Z,8.65
2023-03-26T05:47:48.826Z,8.66
2023-03-26T05:48:48.364Z,8.69
2023-03-26T05:49:48.362Z,8.76
2023-03-26T05:50:48.337Z,8.79
2023-03-26T05:51:48.514Z,8.8
2023-03-26T05:52:48.505Z,8.84
2023-03-26T05:53:48.393Z,8.83
2023-03-26T05:54:48.372Z,8.82
2023-03-26T05:55:48.411Z,8.83
2023-03-26T05:56:48.381Z,8.84
2023-03-26T05:57:50.768Z,8.86
2023-03-26T05:58:49.385Z,8.88
2023-03-26T05:59:48.514Z,8.88
2023-03-26T06:00:48.361Z,8.89
2023-03-26T06:01:48.366Z,8.93
2023-03-26T06:02:48.841Z,8.93
2023-03-26T06:03:48.475Z,8.96
2023-03-26T06:04:48.458Z,8.96
2023-03-26T06:05:48.479Z,8.94
2023-03-26T06:06:48.359Z,8.92
2023-03-26T06:07:48.776Z,8.93
2023-03-26T06:09:01.129Z,8.9
2023-03-26T06:09:48.363Z,8.87
2023-03-26T06:10:48.744Z,8.89
2023-03-26T06:11:48.358Z,8.94
2023-03-26T06:12:48.392Z,8.97
2023-03-26T06:13:48.365Z,8.94
2023-03-26T06:14:48.344Z,8.93
2023-03-26T06:15:48.545Z,8.93
2023-03-26T06:16:48.407Z,8.93
2023-03-26T06:17:48.786Z,8.93
2023-03-26T06:18:48.577Z,8.94
2023-03-26T06:19:50.708Z,8.96
2023-03-26T06:20:48.345Z,8.97
2023-03-26T06:21:48.376Z,8.93
2023-03-26T06:22:48.775Z,8.93
2023-03-26T06:23:48.489Z,8.98
2023-03-26T06:24:48.486Z,9.03
2023-03-26T06:25:48.746Z,9.06
2023-03-26T06:26:48.488Z,9.11
2023-03-26T06:27:48.787Z,9.13
2023-03-26T06:28:48.369Z,9.14
2023-03-26T06:29:48.504Z,9.15
2023-03-26T06:30:50.764Z,9.26
2023-03-26T06:31:48.642Z,9.34
2023-03-26T06:32:48.773Z,9.44
2023-03-26T06:33:48.453Z,9.52
2023-03-26T06:34:48.483Z,9.56
2023-03-26T06:35:48.540Z,9.61
2023-03-26T06:36:48.511Z,9.65
2023-03-26T06:37:48.752Z,9.69
2023-03-26T06:38:48.475Z,9.75
2023-03-26T06:39:48.365Z,9.76
2023-03-26T06:40:48.798Z,9.81
2023-03-26T06:41:50.741Z,9.83
2023-03-26T06:43:08.900Z,9.83
2023-03-26T06:43:48.339Z,9.86
2023-03-26T06:44:48.438Z,9.86
2023-03-26T06:45:48.345Z,9.89
2023-03-26T06:46:48.474Z,9.85
2023-03-26T06:47:48.422Z,9.79
2023-03-26T06:48:48.355Z,9.75
2023-03-26T06:49:48.401Z,9.78
2023-03-26T06:50:48.770Z,9.83
2023-03-26T06:51:48.385Z,9.9
2023-03-26T06:52:53.237Z,9.94
2023-03-26T06:53:48.504Z,10
2023-03-26T06:54:48.364Z,10.09
2023-03-26T06:55:48.791Z,10.16
2023-03-26T06:56:48.366Z,10.19
2023-03-26T06:57:48.803Z,10.29
2023-03-26T06:58:48.339Z,10.38
2023-03-26T06:59:48.349Z,10.45
2023-03-26T07:00:48.563Z,10.47
2023-03-26T07:01:48.345Z,10.5
2023-03-26T07:02:49.119Z,10.52
2023-03-26T07:03:50.765Z,10.5
2023-03-26T07:04:48.450Z,10.46
2023-03-26T07:05:48.364Z,10.45
2023-03-26T07:06:48.366Z,10.4
2023-03-26T07:07:48.483Z,10.38
2023-03-26T07:08:48.443Z,10.36
2023-03-26T07:09:48.494Z,10.38
2023-03-26T07:10:48.809Z,10.42
2023-03-26T07:11:48.510Z,10.43
2023-03-26T07:12:48.784Z,10.45
2023-03-26T07:13:48.483Z,10.48
2023-03-26T07:14:50.674Z,10.51
2023-03-26T07:15:48.514Z,10.53
2023-03-26T07:16:48.530Z,10.56
2023-03-26T07:17:48.771Z,10.57
2023-03-26T07:18:48.444Z,10.58
2023-03-26T07:19:48.442Z,10.55
2023-03-26T07:20:48.373Z,10.57
2023-03-26T07:21:48.508Z,10.58
2023-03-26T07:22:48.793Z,10.59
2023-03-26T07:23:48.365Z,10.6
2023-03-26T07:24:48.363Z,10.6
2023-03-26T07:25:51.702Z,10.58
2023-03-26T07:26:48.385Z,10.57
2023-03-26T07:27:48.749Z,10.55
2023-03-26T07:29:04.498Z,10.53
2023-03-26T07:29:48.413Z,10.5
2023-03-26T07:30:48.506Z,10.43
2023-03-26T07:31:48.489Z,10.34
2023-03-26T07:32:48.841Z,10.25
2023-03-26T07:33:48.394Z,10.18
2023-03-26T07:34:48.360Z,10.16
2023-03-26T07:35:48.417Z,10.14
2023-03-26T07:36:50.816Z,10.12
2023-03-26T07:37:48.380Z,10.05
2023-03-26T07:38:48.470Z,10.02
2023-03-26T07:39:48.452Z,9.94
2023-03-26T07:40:48.794Z,9.93
2023-03-26T07:41:48.390Z,9.93
2023-03-26T07:42:48.766Z,9.97
2023-03-26T07:43:48.491Z,9.99
2023-03-26T07:44:48.460Z,10
2023-03-26T07:45:48.398Z,9.98
2023-03-26T07:46:48.361Z,9.94
2023-03-26T07:47:53.212Z,9.87
2023-03-26T07:48:48.469Z,9.82
2023-03-26T07:49:48.384Z,9.82
2023-03-26T07:50:48.347Z,9.85
2023-03-26T07:51:48.415Z,9.86
2023-03-26T07:52:48.781Z,9.84
2023-03-26T07:53:48.502Z,9.88
2023-03-26T07:54:48.367Z,9.88
2023-03-26T07:55:48.501Z,9.7
2023-03-26T07:56:48.427Z,9.63
2023-03-26T07:57:48.428Z,9.53
2023-03-26T07:58:50.866Z,9.5
2023-03-26T07:59:48.465Z,9.51
2023-03-26T08:00:48.329Z,9.54
2023-03-26T08:01:48.510Z,9.58
2023-03-26T08:02:48.882Z,9.6
2023-03-26T08:03:48.569Z,9.59
2023-03-26T08:04:48.652Z,9.5
2023-03-26T08:05:48.386Z,9.43
2023-03-26T08:06:48.508Z,9.32
2023-03-26T08:07:48.834Z,9.28
2023-03-26T08:08:48.376Z,9.3
2023-03-26T08:09:50.745Z,9.33
2023-03-26T08:10:48.763Z,9.4
2023-03-26T08:11:48.414Z,9.38
2023-03-26T08:12:48.761Z,9.26
2023-03-26T08:13:48.363Z,9.22
2023-03-26T08:14:48.362Z,9.26
2023-03-26T08:15:48.535Z,9.31
2023-03-26T08:16:48.463Z,9.31
2023-03-26T08:17:48.372Z,9.25
2023-03-26T08:18:48.385Z,9.25
2023-03-26T08:19:48.358Z,9.28
2023-03-26T08:20:50.753Z,9.3
2023-03-26T08:21:48.356Z,9.29
2023-03-26T08:22:48.773Z,9.24
2023-03-26T08:23:50.718Z,9.23
2023-03-26T08:24:48.454Z,9.22
2023-03-26T08:25:48.459Z,9.27
2023-03-26T08:26:48.365Z,9.29
2023-03-26T08:27:48.778Z,9.35
2023-03-26T08:28:48.424Z,9.46
2023-03-26T08:29:48.446Z,9.52
2023-03-26T08:30:48.366Z,9.55
2023-03-26T08:31:50.742Z,9.56
2023-03-26T08:32:48.802Z,9.61
2023-03-26T08:33:48.441Z,9.62
2023-03-26T08:34:48.362Z,9.67
2023-03-26T08:35:48.497Z,9.72
2023-03-26T08:36:48.359Z,9.73
2023-03-26T08:37:48.749Z,9.75
2023-03-26T08:38:48.494Z,9.69
2023-03-26T08:39:48.469Z,9.72
2023-03-26T08:40:48.774Z,9.79
2023-03-26T08:41:48.363Z,9.89
2023-03-26T08:42:53.248Z,9.85
2023-03-26T08:43:48.328Z,9.71
2023-03-26T08:44:48.362Z,9.56
2023-03-26T08:45:48.347Z,9.51
2023-03-26T08:46:48.495Z,9.52
2023-03-26T08:47:48.782Z,9.52
2023-03-26T08:48:48.516Z,9.5
2023-03-26T08:49:48.420Z,9.53
2023-03-26T08:50:48.360Z,9.53
2023-03-26T08:51:48.513Z,9.54
2023-03-26T08:52:48.763Z,9.55
2023-03-26T08:53:50.763Z,9.57
2023-03-26T08:54:48.467Z,9.58
2023-03-26T08:55:48.370Z,9.57
2023-03-26T08:56:48.394Z,9.49
2023-03-26T08:57:48.797Z,9.45
2023-03-26T08:58:48.403Z,9.4
2023-03-26T08:59:48.513Z,9.37
2023-03-26T09:00:48.363Z,9.34
2023-03-26T09:01:48.450Z,9.37
2023-03-26T09:02:48.796Z,9.34
2023-03-26T09:03:48.455Z,9.36
2023-03-26T09:04:50.760Z,9.49
2023-03-26T09:05:48.364Z,9.57
2023-03-26T09:06:48.394Z,9.58
2023-03-26T09:07:48.787Z,9.64
2023-03-26T09:08:54.229Z,9.65
2023-03-26T09:09:48.364Z,9.66
2023-03-26T09:10:48.753Z,9.79
2023-03-26T09:11:48.451Z,9.81
2023-03-26T09:12:48.789Z,9.82
2023-03-26T09:13:48.510Z,9.78
2023-03-26T09:14:48.352Z,9.82
2023-03-26T09:15:50.879Z,9.83
2023-03-26T09:16:48.477Z,9.83
2023-03-26T09:17:48.807Z,9.8
2023-03-26T09:18:48.459Z,9.81
2023-03-26T09:19:48.376Z,9.84
2023-03-26T09:20:48.428Z,9.84
2023-03-26T09:21:48.346Z,9.76
2023-03-26T09:22:48.792Z,9.64
2023-03-26T09:23:48.493Z,9.58
2023-03-26T09:24:48.383Z,9.48
2023-03-26T09:25:48.751Z,9.46
2023-03-26T09:26:50.746Z,9.4
2023-03-26T09:27:48.786Z,9.38
2023-03-26T09:28:48.370Z,9.41
2023-03-26T09:29:48.353Z,9.45
2023-03-26T09:30:48.486Z,9.51
2023-03-26T09:31:48.447Z,9.49
2023-03-26T09:32:48.838Z,9.6
2023-03-26T09:33:48.504Z,9.66
2023-03-26T09:34:48.374Z,9.78
2023-03-26T09:35:48.519Z,9.77
2023-03-26T09:36:48.370Z,9.78
2023-03-26T09:37:56.236Z,9.7
2023-03-26T09:38:48.340Z,9.64
2023-03-26T09:39:48.497Z,9.63
2023-03-26T09:40:49.183Z,9.6
2023-03-26T09:41:48.559Z,9.59
2023-03-26T09:42:48.769Z,9.61
2023-03-26T09:43:48.364Z,9.6
2023-03-26T09:44:48.366Z,9.57
2023-03-26T09:45:48.482Z,9.55
2023-03-26T09:46:48.350Z,9.53
2023-03-26T09:47:48.778Z,9.62
2023-03-26T09:48:50.886Z,9.63
2023-03-26T09:49:48.507Z,9.69
2023-03-26T09:50:48.396Z,9.56
2023-03-26T09:51:48.763Z,9.52
2023-03-26T09:52:48.809Z,9.54
2023-03-26T09:53:48.351Z,9.65
2023-03-26T09:54:48.613Z,9.76
2023-03-26T09:55:48.783Z,9.85
2023-03-26T09:56:48.424Z,9.88
2023-03-26T09:57:48.835Z,9.99
2023-03-26T09:58:48.352Z,10.11
2023-03-26T09:59:50.801Z,10.24
2023-03-26T10:00:48.408Z,10.34
2023-03-26T10:01:48.346Z,10.54
2023-03-26T10:02:48.833Z,10.82
2023-03-26T10:03:48.362Z,10.96
2023-03-26T10:04:48.388Z,11.17
2023-03-26T10:05:48.398Z,11.39
2023-03-26T10:06:48.364Z,11.43
2023-03-26T10:07:48.792Z,11.1
2023-03-26T10:08:48.482Z,10.82
2023-03-26T10:09:48.501Z,10.77
2023-03-26T10:10:50.743Z,10.78
2023-03-26T10:11:48.366Z,10.69
2023-03-26T10:12:48.868Z,10.63
2023-03-26T10:13:48.369Z,10.68
2023-03-26T10:14:48.351Z,10.66
2023-03-26T10:15:48.391Z,10.61
2023-03-26T10:16:48.474Z,10.52
2023-03-26T10:17:48.816Z,10.49
2023-03-26T10:18:48.358Z,10.52
2023-03-26T10:19:48.442Z,10.55
2023-03-26T10:20:48.476Z,10.56
2023-03-26T10:21:50.832Z,10.65
2023-03-26T10:22:48.792Z,10.74
2023-03-26T10:23:48.492Z,10.85
2023-03-26T10:24:48.358Z,10.88
2023-03-26T10:25:48.802Z,11.06
2023-03-26T10:27:09.796Z,11.12
2023-03-26T10:27:48.816Z,11.27
2023-03-26T10:28:48.390Z,11.44
2023-03-26T10:29:48.498Z,11.57
2023-03-26T10:30:48.352Z,11.65
2023-03-26T10:31:48.348Z,11.88
2023-03-26T10:32:53.340Z,12.11
2023-03-26T10:33:48.420Z,12.55
2023-03-26T10:34:48.491Z,13.18
2023-03-26T10:35:48.485Z,13.83
2023-03-26T10:36:48.367Z,14.32
2023-03-26T10:37:48.416Z,14.69
2023-03-26T10:38:48.508Z,14.96
2023-03-26T10:39:48.382Z,15.13
2023-03-26T10:40:48.457Z,15.23
2023-03-26T10:41:48.405Z,15.13
2023-03-26T10:42:48.781Z,15.15
2023-03-26T10:44:01.192Z,15.21
2023-03-26T10:44:48.361Z,15.19
2023-03-26T10:45:48.402Z,15.37
2023-03-26T10:46:48.500Z,15.46
2023-03-26T10:47:48.778Z,15.43
2023-03-26T10:48:48.466Z,15.43
2023-03-26T10:49:48.351Z,15.2
2023-03-26T10:50:48.354Z,15.11
2023-03-26T10:51:48.351Z,15.08
2023-03-26T10:52:48.396Z,15.02
2023-03-26T10:53:48.344Z,15.06
2023-03-26T10:54:50.678Z,15
2023-03-26T10:55:48.380Z,14.6
2023-03-26T10:56:48.366Z,14.41
2023-03-26T10:57:48.817Z,13.85
2023-03-26T10:58:50.077Z,13.64
2023-03-26T10:59:48.375Z,13.57
2023-03-26T11:00:48.367Z,13.37
2023-03-26T11:01:48.564Z,13.19
2023-03-26T11:02:48.822Z,13.19
2023-03-26T11:03:48.478Z,13.27
2023-03-26T11:04:48.420Z,13.41
2023-03-26T11:05:50.783Z,13.48
2023-03-26T11:06:48.767Z,13.67
2023-03-26T11:07:48.390Z,13.79
2023-03-26T11:08:48.367Z,13.88
2023-03-26T11:09:48.393Z,14.2
2023-03-26T11:10:48.392Z,14.37
2023-03-26T11:11:48.516Z,14.7
2023-03-26T11:12:48.368Z,14.83
2023-03-26T11:13:48.499Z,15.09
2023-03-26T11:14:48.392Z,15.42
2023-03-26T11:15:48.412Z,15.77
2023-03-26T11:16:51.012Z,15.66
2023-03-26T11:17:48.426Z,15.51
2023-03-26T11:18:48.377Z,15.22
2023-03-26T11:19:48.376Z,14.96
2023-03-26T11:20:48.824Z,14.52
2023-03-26T11:21:48.361Z,13.92
2023-03-26T11:22:48.766Z,13.55
2023-03-26T11:23:48.348Z,13.21
2023-03-26T11:24:48.508Z,12.92
2023-03-26T11:25:48.511Z,12.73
2023-03-26T11:26:48.365Z,12.57
2023-03-26T11:27:53.217Z,12.38
2023-03-26T11:29:02.977Z,12.33
2023-03-26T11:29:48.367Z,12.24
2023-03-26T11:30:48.510Z,12.2
2023-03-26T11:31:48.494Z,12.14
2023-03-26T11:32:48.473Z,12.1
2023-03-26T11:33:48.462Z,11.98
2023-03-26T11:34:48.476Z,11.76
2023-03-26T11:35:48.386Z,11.52
2023-03-26T11:36:48.487Z,11.29
2023-03-26T11:37:48.359Z,11.14
2023-03-26T11:38:50.779Z,11.03
2023-03-26T11:39:48.332Z,10.98
2023-03-26T11:40:49.058Z,10.98
2023-03-26T11:41:48.515Z,11.07
2023-03-26T11:42:48.397Z,11.15
2023-03-26T11:43:48.381Z,11.31
2023-03-26T11:44:48.506Z,11.5
2023-03-26T11:45:48.387Z,11.57
2023-03-26T11:46:48.413Z,11.71
2023-03-26T11:47:48.514Z,11.81
2023-03-26T11:48:48.351Z,12.44
2023-03-26T11:49:50.861Z,12.71
2023-03-26T11:50:49.520Z,12.89
2023-03-26T11:51:48.825Z,13.09
2023-03-26T11:52:48.513Z,13.29
2023-03-26T11:53:48.528Z,13.5
2023-03-26T11:54:48.392Z,13.74
2023-03-26T11:55:48.781Z,14.06
2023-03-26T11:57:05.568Z,14.16
2023-03-26T11:57:48.394Z,14.19
2023-03-26T11:58:48.408Z,14.31
2023-03-26T11:59:56.491Z,14.86
2023-03-26T12:00:50.726Z,15.18
2023-03-26T12:01:48.524Z,15.39
2023-03-26T12:02:48.817Z,15.44
2023-03-26T12:03:48.538Z,15.59
2023-03-26T12:04:48.559Z,15.65
2023-03-26T12:05:48.479Z,15.7
2023-03-26T12:06:48.350Z,15.78
2023-03-26T12:07:48.753Z,15.78
2023-03-26T12:08:48.450Z,15.75
2023-03-26T12:09:48.349Z,15.68
2023-03-26T12:10:48.775Z,15.62
2023-03-26T12:11:50.748Z,15.27
2023-03-26T12:12:48.399Z,15
2023-03-26T12:13:48.438Z,14.77
2023-03-26T12:14:48.436Z,14.69
2023-03-26T12:15:48.402Z,14.42
2023-03-26T12:16:48.395Z,14.19
2023-03-26T12:17:48.415Z,13.96
2023-03-26T12:18:48.439Z,13.89
2023-03-26T12:19:48.407Z,13.71
2023-03-26T12:20:48.339Z,13.58
2023-03-26T12:21:48.390Z,13.38
2023-03-26T12:22:53.224Z,13.13
2023-03-26T12:23:48.499Z,12.91
2023-03-26T12:24:48.368Z,12.83
2023-03-26T12:25:48.750Z,12.69
2023-03-26T12:26:48.409Z,12.76
2023-03-26T12:27:48.779Z,12.83
2023-03-26T12:28:48.381Z,12.89
2023-03-26T12:29:48.418Z,12.92
2023-03-26T12:30:48.495Z,13.02
2023-03-26T12:31:48.527Z,13.14
2023-03-26T12:32:48.552Z,13.41
2023-03-26T12:33:50.730Z,13.56
2023-03-26T12:34:48.515Z,13.83
2023-03-26T12:35:48.538Z,14.09
2023-03-26T12:36:48.358Z,14.34
2023-03-26T12:37:48.787Z,14.68
2023-03-26T12:39:15.932Z,15.03
2023-03-26T12:40:08.827Z,15.39
2023-03-26T12:40:48.780Z,15.86
2023-03-26T12:44:42.919Z,16.26
2023-03-26T12:44:52.813Z,16.41
2023-03-26T12:45:05.736Z,16.82
2023-03-26T12:47:56.569Z,16.98
2023-03-26T12:47:58.861Z,16.9
2023-03-26T12:49:22.267Z,16.47
2023-03-26T12:50:34.117Z,16.34
2023-03-26T12:51:21.894Z,16.14
2023-03-26T12:52:21.947Z,15.77
2023-03-26T12:53:22.011Z,15.42
2023-03-26T12:54:24.054Z,15.32
2023-03-26T12:55:21.571Z,15.25
2023-03-26T12:56:22.154Z,15.15
2023-03-26T12:57:21.637Z,15.19
2023-03-26T12:58:22.016Z,15.36
2023-03-26T12:59:21.756Z,15.29
2023-03-26T13:00:21.632Z,15.45
2023-03-26T13:01:21.650Z,15.68
2023-03-26T13:02:21.671Z,15.69
2023-03-26T13:03:21.926Z,15.67
2023-03-26T13:04:21.612Z,15.62
2023-03-26T13:05:24.042Z,15.68
2023-03-26T13:06:21.757Z,15.73
2023-03-26T13:07:21.702Z,15.86
2023-03-26T13:08:21.632Z,15.81
2023-03-26T13:09:21.604Z,15.42
2023-03-26T13:10:21.729Z,15.08
2023-03-26T13:11:22.018Z,14.78
2023-03-26T13:12:21.603Z,14.55
2023-03-26T13:13:21.702Z,14.48
2023-03-26T13:14:21.605Z,14.55
2023-03-26T13:15:21.596Z,14.56
2023-03-26T13:16:24.230Z,14.55